Bluff Springs, Texas
Current Conditions -  °F | °C
As of 3:26 PM on Saturday 22 Nov 2014 (Local Time) from KAUS Reporting Station
Light Rain Light Rain  
Wind Chill: 65°   Ceiling: 600
Heat Index: 65°   Visibility: 5mi
Dew Point: 65°   Wind: 13mph
Humidity: 100%   Direction: 110°ESE
Pressure: 29.76"   Gusts: 23mph
Location:  30.1791°N, 97.7294°W
Report Text: KAUS 222126Z 11011G20KT 5SM -RA BR BKN006 OVC011 18/18 A2976 RMK AO2 TSE25 TS MOV N P0013 T01830183
Loading
Personal Weather Stations






























Interactive Weather Map New forecast layout! Learn more

10-Day Weather Forecast

Advertisements
Track Severe Weather on mobile